createdAt,value
2022-11-25T00:01:44.820Z,189.60
2022-11-25T00:06:45.913Z,187.10
2022-11-25T00:09:15.361Z,190.65
2022-11-25T00:11:45.444Z,199.35
2022-11-25T00:14:16.626Z,191.57
2022-11-25T00:16:49.051Z,188.75
2022-11-25T00:19:18.790Z,190.07
2022-11-25T00:21:49.514Z,188.85
2022-11-25T00:24:18.119Z,187.45
2022-11-25T00:26:46.603Z,188.07
2022-11-25T00:29:15.104Z,188.18
2022-11-25T00:31:43.858Z,188.18
2022-11-25T00:34:16.011Z,186.55
2022-11-25T00:36:46.712Z,188.15
2022-11-25T00:39:18.556Z,187.68
2022-11-25T00:42:05.520Z,183.23
2022-11-25T00:44:40.735Z,184.60
2022-11-25T00:47:13.345Z,186.05
2022-11-25T00:49:47.041Z,183.93
2022-11-25T00:52:19.196Z,184.25
2022-11-25T00:54:50.596Z,183.20
2022-11-25T00:57:22.848Z,181.18
2022-11-25T00:59:52.819Z,186.48
2022-11-25T01:02:25.552Z,186.55
2022-11-25T01:04:57.869Z,184.75
2022-11-25T01:07:26.225Z,186.73
2022-11-25T01:09:57.083Z,188.05
2022-11-25T01:12:26.401Z,186.68
2022-11-25T01:14:54.690Z,192.13
2022-11-25T01:17:25.389Z,191.52
2022-11-25T01:19:57.027Z,189.32
2022-11-25T01:22:26.857Z,190.15
2022-11-25T01:24:56.378Z,192.05
2022-11-25T01:27:27.072Z,193.32
2022-11-25T01:29:55.575Z,191.55
2022-11-25T01:32:25.121Z,195.27
2022-11-25T01:34:54.651Z,191.80
2022-11-25T01:37:28.050Z,193.40
2022-11-25T01:39:56.407Z,195.45
2022-11-25T01:42:29.858Z,196.18
2022-11-25T01:45:36.047Z,198.80
2022-11-25T01:48:14.264Z,198.75
2022-11-25T01:50:45.296Z,192.60
2022-11-25T01:53:17.604Z,199.27
2022-11-25T01:55:54.981Z,198.43
2022-11-25T01:58:30.989Z,200.85
2022-11-25T02:01:00.768Z,199.15
2022-11-25T02:03:36.291Z,199.45
2022-11-25T02:06:14.892Z,203.15
2022-11-25T02:08:50.919Z,199.43
2022-11-25T02:11:23.504Z,202.32
2022-11-25T02:13:54.189Z,191.85
2022-11-25T02:16:25.350Z,199.30
2022-11-25T02:18:54.174Z,192.80
2022-11-25T02:21:33.133Z,189.30
2022-11-25T02:24:12.729Z,195.02
2022-11-25T02:26:43.882Z,189.85
2022-11-25T02:29:15.162Z,199.60
2022-11-25T02:31:45.657Z,193.05
2022-11-25T02:34:15.508Z,189.25
2022-11-25T02:36:46.273Z,186.07
2022-11-25T02:39:15.255Z,200.15
2022-11-25T02:41:53.502Z,198.85
2022-11-25T02:44:23.106Z,198.43
2022-11-25T02:46:52.662Z,196.20
2022-11-25T02:49:22.199Z,200.68
2022-11-25T02:51:54.370Z,198.45
2022-11-25T02:54:23.373Z,190.52
2022-11-25T02:56:54.348Z,181.15
2022-11-25T02:59:22.592Z,189.85
2022-11-25T03:01:52.221Z,197.20
2022-11-25T03:04:21.928Z,196.93
2022-11-25T03:06:51.452Z,194.95
2022-11-25T03:09:19.735Z,190.10
2022-11-25T03:12:21.714Z,191.98
2022-11-25T03:14:56.145Z,194.00
2022-11-25T03:17:25.790Z,194.13
2022-11-25T03:19:55.785Z,192.17
2022-11-25T03:22:26.746Z,196.90
2022-11-25T03:24:55.419Z,192.18
2022-11-25T03:27:27.996Z,191.75
2022-11-25T03:30:01.455Z,192.57
2022-11-25T03:32:31.429Z,193.97
2022-11-25T03:35:01.324Z,197.73
2022-11-25T03:37:30.961Z,196.23
2022-11-25T03:39:59.344Z,194.20
2022-11-25T03:42:28.953Z,195.85
2022-11-25T03:44:58.918Z,196.90
2022-11-25T03:47:31.524Z,194.23
2022-11-25T03:52:30.894Z,197.07
2022-11-25T03:54:59.436Z,202.30
2022-11-25T03:57:32.878Z,202.48
2022-11-25T04:00:02.987Z,204.23
2022-11-25T04:02:49.165Z,204.48
2022-11-25T04:05:20.805Z,201.55
2022-11-25T04:07:57.585Z,198.27
2022-11-25T04:10:26.451Z,200.13
2022-11-25T04:12:55.668Z,193.35
2022-11-25T04:15:30.954Z,194.07
2022-11-25T04:18:03.679Z,194.18
2022-11-25T04:20:33.874Z,197.50
2022-11-25T04:23:07.528Z,198.60
2022-11-25T04:25:40.890Z,197.60
2022-11-25T04:28:17.840Z,200.27
2022-11-25T04:30:47.514Z,196.27
2022-11-25T04:33:18.495Z,198.80
2022-11-25T04:35:49.008Z,197.82
2022-11-25T04:38:19.889Z,199.13
2022-11-25T04:40:49.599Z,203.65
2022-11-25T04:43:23.570Z,203.57
2022-11-25T04:46:13.452Z,203.48
2022-11-25T04:48:49.992Z,203.30
2022-11-25T04:51:21.166Z,200.70
2022-11-25T04:53:54.366Z,201.00
2022-11-25T04:56:26.101Z,203.18
2022-11-25T04:59:15.917Z,205.10
2022-11-25T05:01:49.269Z,207.18
2022-11-25T05:04:33.124Z,208.68
2022-11-25T05:07:04.131Z,206.50
2022-11-25T05:09:34.590Z,203.95
2022-11-25T05:12:15.476Z,206.73
2022-11-25T05:14:45.612Z,213.20
2022-11-25T05:17:17.874Z,215.40
2022-11-25T05:19:49.775Z,203.88
2022-11-25T05:22:22.013Z,205.15
2022-11-25T05:24:50.574Z,207.75
2022-11-25T05:27:20.432Z,206.45
2022-11-25T05:29:55.471Z,205.63
2022-11-25T05:32:26.570Z,210.02
2022-11-25T05:35:00.734Z,207.95
2022-11-25T05:37:31.813Z,207.38
2022-11-25T05:40:07.082Z,207.77
2022-11-25T05:42:57.287Z,210.80
2022-11-25T05:45:25.646Z,200.20
2022-11-25T05:47:56.351Z,202.63
2022-11-25T05:50:29.414Z,212.55
2022-11-25T05:53:18.226Z,215.88
2022-11-25T05:55:57.258Z,214.88
2022-11-25T05:58:45.621Z,215.75
2022-11-25T06:01:17.145Z,218.88
2022-11-25T06:03:47.464Z,212.50
2022-11-25T06:06:20.395Z,225.30
2022-11-25T06:08:49.971Z,215.27
2022-11-25T06:11:19.964Z,215.38
2022-11-25T06:13:51.122Z,210.05
2022-11-25T06:16:23.394Z,209.52
2022-11-25T06:21:37.505Z,211.48
2022-11-25T06:24:09.287Z,209.48
2022-11-25T06:26:38.212Z,209.23
2022-11-25T06:29:07.877Z,213.18
2022-11-25T06:31:37.858Z,213.95
2022-11-25T06:34:34.345Z,214.13
2022-11-25T06:37:08.446Z,215.32
2022-11-25T06:39:39.525Z,218.05
2022-11-25T06:42:07.902Z,215.00
2022-11-25T06:44:37.893Z,215.75
2022-11-25T06:47:06.737Z,217.70
2022-11-25T06:49:36.230Z,213.68
2022-11-25T06:52:04.993Z,214.90
2022-11-25T06:54:42.237Z,219.05
2022-11-25T06:57:13.538Z,220.40
2022-11-25T06:59:45.643Z,215.23
2022-11-25T07:02:14.698Z,214.70
2022-11-25T07:04:43.213Z,213.55
2022-11-25T07:07:13.488Z,216.32
2022-11-25T07:09:44.651Z,216.38
2022-11-25T07:12:13.292Z,218.80
2022-11-25T07:14:42.930Z,209.18
2022-11-25T07:17:12.535Z,215.23
2022-11-25T07:19:42.541Z,205.68
2022-11-25T07:22:12.368Z,199.90
2022-11-25T07:24:44.516Z,214.88
2022-11-25T07:29:58.253Z,217.95
2022-11-25T07:32:33.864Z,215.70
2022-11-25T07:35:03.349Z,218.60
2022-11-25T07:37:31.618Z,219.23
2022-11-25T07:40:01.295Z,224.65
2022-11-25T07:42:31.333Z,219.30
2022-11-25T07:45:00.768Z,217.50
2022-11-25T07:47:43.944Z,216.60
2022-11-25T07:50:13.991Z,215.40
2022-11-25T07:52:43.529Z,216.27
2022-11-25T07:55:14.447Z,219.57
2022-11-25T07:57:42.831Z,215.27
2022-11-25T08:00:15.199Z,211.20
2022-11-25T08:02:43.912Z,213.48
2022-11-25T08:05:14.661Z,213.55
2022-11-25T08:07:44.183Z,210.02
2022-11-25T08:10:14.054Z,218.90
2022-11-25T08:12:42.589Z,212.57
2022-11-25T08:15:12.015Z,217.05
2022-11-25T08:17:41.874Z,210.55
2022-11-25T08:20:13.407Z,204.95
2022-11-25T08:22:43.380Z,214.10
2022-11-25T08:25:14.645Z,199.88
2022-11-25T08:27:43.015Z,218.43
2022-11-25T08:30:13.717Z,221.52
2022-11-25T08:32:42.042Z,205.02
2022-11-25T08:35:12.116Z,216.82
2022-11-25T08:37:40.593Z,206.57
2022-11-25T08:40:12.915Z,216.00
2022-11-25T08:42:43.881Z,216.80
2022-11-25T08:45:14.879Z,226.75
2022-11-25T08:47:44.714Z,211.07
2022-11-25T08:50:17.795Z,221.25
2022-11-25T08:52:46.277Z,225.25
2022-11-25T08:55:16.044Z,229.05
2022-11-25T08:57:47.026Z,225.43
2022-11-25T09:00:17.001Z,224.93
2022-11-25T09:02:45.636Z,228.48
2022-11-25T09:05:19.462Z,240.98
2022-11-25T09:07:49.158Z,236.65
2022-11-25T09:10:18.994Z,235.30
2022-11-25T09:12:48.812Z,227.05
2022-11-25T09:15:18.600Z,229.00
2022-11-25T09:17:48.353Z,233.68
2022-11-25T09:20:18.095Z,230.32
2022-11-25T09:22:47.955Z,228.77
2022-11-25T09:25:18.844Z,225.30
2022-11-25T09:27:49.881Z,226.18
2022-11-25T09:30:21.220Z,228.27
2022-11-25T09:32:53.243Z,224.60
2022-11-25T09:35:24.738Z,222.82
2022-11-25T09:37:54.515Z,225.40
2022-11-25T09:40:35.976Z,224.10
2022-11-25T09:43:37.991Z,225.43
2022-11-25T09:46:36.714Z,227.88
2022-11-25T09:49:23.295Z,225.88
2022-11-25T09:52:08.073Z,225.35
2022-11-25T09:54:44.491Z,226.38
2022-11-25T09:57:24.324Z,228.15
2022-11-25T10:00:05.004Z,225.80
2022-11-25T10:02:47.293Z,222.88
2022-11-25T10:05:22.543Z,224.35
2022-11-25T10:07:55.253Z,219.45
2022-11-25T10:10:27.983Z,222.43
2022-11-25T10:12:59.816Z,220.55
2022-11-25T10:15:36.943Z,218.73
2022-11-25T10:18:16.488Z,222.13
2022-11-25T10:20:46.784Z,222.30
2022-11-25T10:23:27.840Z,226.20
2022-11-25T10:26:03.046Z,224.52
2022-11-25T10:28:36.477Z,229.80
2022-11-25T10:31:15.134Z,233.38
2022-11-25T10:33:47.897Z,230.10
2022-11-25T10:36:23.444Z,229.23
2022-11-25T10:39:01.749Z,226.57
2022-11-25T10:41:33.877Z,226.90
2022-11-25T10:47:11.600Z,225.98
2022-11-25T10:49:37.175Z,219.63
2022-11-25T10:52:13.080Z,215.70
2022-11-25T10:54:43.301Z,219.10
2022-11-25T10:57:20.885Z,217.60
2022-11-25T10:59:58.439Z,212.32
2022-11-25T11:02:31.857Z,213.32
2022-11-25T11:05:05.191Z,225.80
2022-11-25T11:07:39.600Z,215.43
2022-11-25T11:10:21.115Z,208.82
2022-11-25T11:12:59.450Z,225.88
2022-11-25T11:15:34.569Z,224.23
2022-11-25T11:18:25.027Z,222.68
2022-11-25T11:20:57.085Z,227.30
2022-11-25T11:26:03.305Z,245.10
2022-11-25T11:28:41.358Z,229.18
2022-11-25T11:31:20.247Z,235.50
2022-11-25T11:34:03.520Z,232.70
2022-11-25T11:36:53.023Z,231.00
2022-11-25T11:40:05.043Z,231.98
2022-11-25T11:42:46.853Z,238.32
2022-11-25T11:45:32.592Z,226.65
2022-11-25T11:48:18.622Z,231.48
2022-11-25T11:50:52.387Z,222.68
2022-11-25T11:53:31.565Z,222.73
2022-11-25T11:56:34.271Z,217.43
2022-11-25T11:59:28.433Z,238.45
2022-11-25T12:02:11.215Z,228.75
2022-11-25T12:04:46.644Z,190.05
2022-11-25T12:07:24.528Z,199.77
2022-11-25T12:10:03.220Z,203.93
2022-11-25T12:12:36.774Z,222.57
2022-11-25T12:15:19.157Z,216.07
2022-11-25T12:17:54.135Z,219.13
2022-11-25T12:20:36.052Z,231.23
2022-11-25T12:23:13.976Z,237.90
2022-11-25T12:25:45.174Z,243.75
2022-11-25T12:28:19.631Z,244.38
2022-11-25T12:31:05.403Z,252.90
2022-11-25T12:33:54.095Z,251.77
2022-11-25T12:36:31.034Z,259.65
2022-11-25T12:39:06.524Z,241.95
2022-11-25T12:41:44.677Z,242.80
2022-11-25T12:44:20.398Z,236.98
2022-11-25T12:46:54.243Z,230.73
2022-11-25T12:49:27.966Z,223.27
2022-11-25T12:52:28.113Z,222.13
2022-11-25T12:55:18.975Z,236.85
2022-11-25T12:58:30.835Z,234.38
2022-11-25T13:01:48.075Z,244.23
2022-11-25T13:05:18.560Z,234.30
2022-11-25T13:08:05.402Z,241.02
2022-11-25T13:10:50.434Z,230.68
2022-11-25T13:13:29.083Z,237.80
2022-11-25T13:16:01.991Z,236.80
2022-11-25T13:18:34.247Z,235.55
2022-11-25T13:23:58.910Z,232.40
2022-11-25T13:26:52.439Z,231.15
2022-11-25T13:30:02.248Z,233.77
2022-11-25T13:32:38.942Z,229.13
2022-11-25T13:35:55.319Z,235.10
2022-11-25T13:38:59.972Z,228.85
2022-11-25T13:42:00.237Z,226.85
2022-11-25T13:44:35.113Z,219.13
2022-11-25T13:47:38.334Z,224.50
2022-11-25T13:50:22.386Z,225.40
2022-11-25T13:53:00.230Z,217.27
2022-11-25T13:55:37.636Z,218.50
2022-11-25T13:58:20.385Z,224.18
2022-11-25T14:01:06.130Z,219.77
2022-11-25T14:04:07.380Z,225.35
2022-11-25T14:06:58.801Z,226.25
2022-11-25T14:09:40.877Z,231.13
2022-11-25T14:12:34.138Z,230.05
2022-11-25T14:15:38.892Z,226.52
2022-11-25T14:19:16.796Z,228.07
2022-11-25T14:21:49.196Z,227.63
2022-11-25T14:24:30.684Z,228.10
2022-11-25T14:27:02.214Z,222.07
2022-11-25T14:29:39.538Z,222.63
2022-11-25T14:32:16.908Z,222.38
2022-11-25T14:34:50.646Z,214.55
2022-11-25T14:37:27.214Z,215.82
2022-11-25T14:40:02.109Z,218.05
2022-11-25T14:42:37.826Z,222.48
2022-11-25T14:45:24.047Z,223.25
2022-11-25T14:47:55.256Z,220.02
2022-11-25T14:50:34.654Z,227.25
2022-11-25T14:53:09.369Z,227.70
2022-11-25T14:55:41.090Z,220.18
2022-11-25T14:58:14.154Z,215.85
2022-11-25T15:00:53.926Z,218.60
2022-11-25T15:03:23.914Z,213.15
2022-11-25T15:05:57.853Z,210.88
2022-11-25T15:08:27.933Z,215.63
2022-11-25T15:11:01.393Z,210.57
2022-11-25T15:13:34.795Z,212.20
2022-11-25T15:16:13.564Z,211.95
2022-11-25T15:18:51.366Z,210.02
2022-11-25T15:21:24.297Z,211.32
2022-11-25T15:23:54.004Z,210.48
2022-11-25T15:26:26.731Z,212.50
2022-11-25T15:28:58.548Z,214.43
2022-11-25T15:31:32.204Z,227.60
2022-11-25T15:34:05.240Z,210.45
2022-11-25T15:36:35.157Z,206.68
2022-11-25T15:39:23.640Z,208.43
2022-11-25T15:41:56.601Z,210.48
2022-11-25T15:44:30.060Z,211.65
2022-11-25T15:47:06.274Z,202.00
2022-11-25T15:49:37.865Z,194.57
2022-11-25T15:52:10.956Z,199.27
2022-11-25T15:54:43.883Z,198.82
2022-11-25T15:57:20.857Z,210.00
2022-11-25T16:00:03.764Z,209.48
2022-11-25T16:02:52.682Z,207.18
2022-11-25T16:05:31.826Z,208.48
2022-11-25T16:08:36.125Z,214.95
2022-11-25T16:11:19.622Z,212.77
2022-11-25T16:13:50.346Z,217.55
2022-11-25T16:16:25.979Z,207.40
2022-11-25T16:19:19.043Z,206.88
2022-11-25T16:22:04.286Z,209.98
2022-11-25T16:24:39.791Z,207.32
2022-11-25T16:27:23.673Z,207.00
2022-11-25T16:29:57.666Z,210.18
2022-11-25T16:32:28.192Z,210.63
2022-11-25T16:35:02.621Z,214.55
2022-11-25T16:37:33.796Z,215.02
2022-11-25T16:40:03.701Z,212.65
2022-11-25T16:42:35.492Z,209.57
2022-11-25T16:45:13.630Z,214.95
2022-11-25T16:47:43.088Z,208.18
2022-11-25T16:50:15.300Z,205.60
2022-11-25T16:52:46.591Z,208.30
2022-11-25T16:55:15.553Z,206.48
2022-11-25T16:57:45.702Z,210.65
2022-11-25T17:00:17.329Z,203.23
2022-11-25T17:02:48.347Z,205.77
2022-11-25T17:05:19.816Z,210.27
2022-11-25T17:07:53.308Z,220.82
2022-11-25T17:10:23.052Z,216.25
2022-11-25T17:12:54.135Z,217.02
2022-11-25T17:15:31.255Z,214.73
2022-11-25T17:18:02.362Z,220.50
2022-11-25T17:20:31.829Z,216.20
2022-11-25T17:23:03.515Z,213.18
2022-11-25T17:25:37.112Z,214.77
2022-11-25T17:28:08.271Z,212.77
2022-11-25T17:30:40.210Z,224.00
2022-11-25T17:33:15.403Z,208.05
2022-11-25T17:35:46.038Z,212.07
2022-11-25T17:38:19.987Z,212.75
2022-11-25T17:40:50.543Z,214.27
2022-11-25T17:43:21.737Z,209.05
2022-11-25T17:45:50.256Z,214.57
2022-11-25T17:48:21.018Z,209.38
2022-11-25T17:50:50.500Z,211.98
2022-11-25T17:53:20.529Z,198.02
2022-11-25T17:55:51.431Z,196.77
2022-11-25T17:58:21.861Z,200.00
2022-11-25T18:00:50.314Z,190.35
2022-11-25T18:03:19.893Z,189.48
2022-11-25T18:05:48.119Z,187.30
2022-11-25T18:08:20.270Z,185.48
2022-11-25T18:10:50.103Z,189.35
2022-11-25T18:13:20.797Z,182.20
2022-11-25T18:15:49.476Z,194.25
2022-11-25T18:18:22.568Z,202.23
2022-11-25T18:20:52.303Z,200.45
2022-11-25T18:23:23.227Z,197.38
2022-11-25T18:28:25.969Z,199.60
2022-11-25T18:30:59.609Z,205.52
2022-11-25T18:33:30.396Z,215.77
2022-11-25T18:36:00.160Z,204.35
2022-11-25T18:38:31.007Z,210.60
2022-11-25T18:40:59.722Z,204.38
2022-11-25T18:43:30.743Z,203.45
2022-11-25T18:45:59.451Z,203.55
2022-11-25T18:48:28.228Z,201.77
2022-11-25T18:50:57.612Z,201.52
2022-11-25T18:53:27.403Z,198.65
2022-11-25T18:55:58.442Z,199.52
2022-11-25T18:58:30.125Z,203.32
2022-11-25T19:01:04.559Z,197.68
2022-11-25T19:03:35.818Z,201.13
2022-11-25T19:06:05.638Z,202.98
2022-11-25T19:08:35.171Z,204.45
2022-11-25T19:11:10.536Z,201.82
2022-11-25T19:13:38.938Z,201.50
2022-11-25T19:16:14.433Z,202.98
2022-11-25T19:18:46.386Z,208.55
2022-11-25T19:21:17.460Z,218.70
2022-11-25T19:23:47.984Z,201.52
2022-11-25T19:26:23.374Z,199.35
2022-11-25T19:29:01.924Z,202.77
2022-11-25T19:31:35.078Z,203.90
2022-11-25T19:34:04.236Z,203.27
2022-11-25T19:36:35.198Z,201.82
2022-11-25T19:39:11.407Z,202.75
2022-11-25T19:41:42.399Z,210.10
2022-11-25T19:44:12.118Z,207.25
2022-11-25T19:47:13.862Z,206.90
2022-11-25T19:49:36.992Z,209.85
2022-11-25T19:52:07.108Z,209.80
2022-11-25T19:54:36.864Z,206.95
2022-11-25T19:57:16.446Z,210.18
2022-11-25T19:59:45.452Z,223.88
2022-11-25T20:02:18.396Z,212.68
2022-11-25T20:04:50.557Z,214.48
2022-11-25T20:07:21.614Z,213.98
2022-11-25T20:09:52.147Z,216.02
2022-11-25T20:12:27.681Z,217.15
2022-11-25T20:14:56.262Z,227.48
2022-11-25T20:17:30.881Z,221.38
2022-11-25T20:20:04.293Z,224.65
2022-11-25T20:22:39.797Z,227.05
2022-11-25T20:25:14.773Z,216.50
2022-11-25T20:27:44.830Z,213.55
2022-11-25T20:30:18.919Z,216.52
2022-11-25T20:32:48.953Z,213.93
2022-11-25T20:35:17.511Z,216.68
2022-11-25T20:37:53.882Z,216.23
2022-11-25T20:40:29.009Z,211.93
2022-11-25T20:43:00.642Z,219.30
2022-11-25T20:45:30.331Z,216.55
2022-11-25T20:47:59.232Z,210.38
2022-11-25T20:50:31.470Z,209.43
2022-11-25T20:53:02.174Z,208.23
2022-11-25T20:55:31.881Z,208.52
2022-11-25T20:58:04.778Z,208.40
2022-11-25T21:00:34.234Z,213.43
2022-11-25T21:03:03.719Z,222.80
2022-11-25T21:05:31.974Z,215.82
2022-11-25T21:08:03.226Z,220.70
2022-11-25T21:10:34.675Z,215.85
2022-11-25T21:13:16.007Z,217.93
2022-11-25T21:15:46.168Z,216.67
2022-11-25T21:18:15.694Z,220.00
2022-11-25T21:20:45.320Z,218.88
2022-11-25T21:23:22.313Z,225.20
2022-11-25T21:25:52.523Z,221.43
2022-11-25T21:28:27.073Z,220.85
2022-11-25T21:30:55.521Z,221.40
2022-11-25T21:33:25.126Z,221.05
2022-11-25T21:35:54.677Z,222.45
2022-11-25T21:38:27.638Z,227.45
2022-11-25T21:40:58.774Z,225.30
2022-11-25T21:43:34.182Z,224.85
2022-11-25T21:46:05.389Z,220.23
2022-11-25T21:48:41.036Z,222.52
2022-11-25T21:51:12.767Z,224.32
2022-11-25T21:53:42.754Z,219.25
2022-11-25T21:56:19.204Z,224.73
2022-11-25T21:58:50.082Z,222.30
2022-11-25T22:01:19.360Z,221.93
2022-11-25T22:03:49.355Z,222.73
2022-11-25T22:06:22.168Z,221.73
2022-11-25T22:08:51.850Z,220.73
2022-11-25T22:11:27.352Z,217.88
2022-11-25T22:13:58.701Z,220.25
2022-11-25T22:16:32.547Z,220.65
2022-11-25T22:19:03.701Z,223.88
2022-11-25T22:21:33.233Z,221.60
2022-11-25T22:24:02.805Z,219.38
2022-11-25T22:26:35.121Z,221.77
2022-11-25T22:29:06.193Z,220.00
2022-11-25T22:31:35.760Z,221.13
2022-11-25T22:34:05.632Z,227.63
2022-11-25T22:36:37.527Z,227.40
2022-11-25T22:39:17.346Z,224.15
2022-11-25T22:41:48.998Z,230.00
2022-11-25T22:44:24.858Z,222.80
2022-11-25T22:46:54.573Z,219.65
2022-11-25T22:49:42.541Z,221.98
2022-11-25T22:52:23.129Z,223.55
2022-11-25T22:54:54.017Z,234.98
2022-11-25T22:57:24.817Z,227.85
2022-11-25T22:59:55.767Z,228.32
2022-11-25T23:02:34.680Z,220.50
2022-11-25T23:05:03.482Z,221.27
2022-11-25T23:07:33.037Z,223.77
2022-11-25T23:10:02.577Z,222.10
2022-11-25T23:12:32.085Z,223.60
2022-11-25T23:15:02.995Z,229.63
2022-11-25T23:17:33.718Z,222.65
2022-11-25T23:20:03.267Z,223.30
2022-11-25T23:22:32.823Z,222.93
2022-11-25T23:25:01.080Z,230.77
2022-11-25T23:27:31.861Z,227.82
2022-11-25T23:30:03.921Z,224.43
2022-11-25T23:32:32.325Z,227.82
2022-11-25T23:35:02.348Z,246.57
2022-11-25T23:37:33.096Z,224.80
2022-11-25T23:40:02.752Z,242.25
2022-11-25T23:42:34.084Z,224.57
2022-11-25T23:45:08.206Z,221.98
2022-11-25T23:47:38.934Z,228.77
2022-11-25T23:50:08.757Z,223.75
2022-11-25T23:52:38.301Z,224.93
2022-11-25T23:55:11.285Z,233.95
2022-11-25T23:57:40.859Z,259.35
